Time;durP1;ratioP1;P1;durP2;ratioP2;P2;SDS_P1;SDS_P2;PMS_P1;PMS_P2;Temp;Humidity;BMP_temperature;BMP_pressure;BME280_temperature;BME280_humidity;BME280_pressure;Samples;Min_cycle;Max_cycle;Signal;HPM_P1;HPM_P2
2023/07/07 00:00:57;;;;;;;;;;;;;;;;;;5055957;28;20315;-21
2023/07/07 00:03:23;;;;;;;;;;;;;;;;;;5055079;28;20336;-22
2023/07/07 00:05:49;;;;;;;;;;;;;;;;;;5055286;28;20363;-22
2023/07/07 00:08:14;;;;;;;;;;;;;;;;;;5055742;28;19973;-20
2023/07/07 00:10:42;;;;;;;;;;;;;;;;;;5055144;28;19913;-21
2023/07/07 00:13:08;;;;;;;;;;;;;;;;;;5037502;28;19909;-21
2023/07/07 00:15:34;;;;;;;;;;;;;;;;;;5055200;28;20062;-20
2023/07/07 00:18:00;;;;;;;;;;;;;;;;;;5055380;28;19909;-21
2023/07/07 00:20:26;;;;;;;;;;;;;;;;;;5055046;28;20393;-21
2023/07/07 00:22:55;;;;;;;;;;;;;;;;;;5055070;28;19908;-21
2023/07/07 00:25:21;;;;;;;;;;;;;;;;;;5054820;28;19960;-20
2023/07/07 00:27:47;;;;;;;;;;;;;;;;;;5037290;28;19910;-21
2023/07/07 00:30:13;;;;;;;;;;;;;;;;;;5054864;28;19909;-21
2023/07/07 00:32:39;;;;;;;;;;;;;;;;;;5054808;28;19916;-21
2023/07/07 00:35:05;;;;;;;;;;;;;;;;;;5054849;28;20003;-21
2023/07/07 00:37:31;;;;;;;;;;;;;;;;;;5054764;28;19909;-20
2023/07/07 00:39:57;;;;;;;;;;;;;;;;;;5055047;28;19995;-22
2023/07/07 00:42:23;;;;;;;;;;;;;;;;;;5054763;28;20347;-22
2023/07/07 00:44:49;;;;;;;;;;;;;;;;;;5054704;28;19909;-22
2023/07/07 00:47:15;;;;;;;;;;;;;;;;;;5054928;28;20224;-21
2023/07/07 00:49:41;;;;;;;;;;;;;;;;;;5054642;28;19920;-21
2023/07/07 00:52:07;;;;;;;;;;;;;;;;;;5054447;28;19913;-20
2023/07/07 00:54:33;;;;;;;;;;;;;;;;;;5054566;28;19939;-21
2023/07/07 00:56:59;;;;;;;;;;;;;;;;;;5054530;28;19916;-21
2023/07/07 00:59:25;;;;;;;;;;;;;;;;;;5054850;28;19920;-21
2023/07/07 01:01:51;;;;;;;;;;;;;;;;;;5054495;28;20339;-24
2023/07/07 01:04:17;;;;;;;;;;;;;;;;;;5054306;28;20271;-20
2023/07/07 01:06:43;;;;;;;;;;;;;;;;;;5054470;28;19909;-20
2023/07/07 01:09:09;;;;;;;;;;;;;;;;;;5054724;28;19908;-20
2023/07/07 01:11:34;;;;;;;;;;;;;;;;;;5054374;28;20280;-21
2023/07/07 01:14:00;;;;;;;;;;;;;;;;;;5054337;28;20011;-21
2023/07/07 01:16:26;;;;;;;;;;;;;;;;;;5054610;28;19951;-21
2023/07/07 01:18:52;;;;;;;;;;;;;;;;;;5054373;28;20320;-21
2023/07/07 01:21:18;;;;;;;;;;;;;;;;;;5054347;28;20007;-20
2023/07/07 01:23:44;;;;;;;;;;;;;;;;;;5054330;28;19909;-20
2023/07/07 01:26:14;;;;;;;;;;;;;;;;;;5036679;28;20286;-22
2023/07/07 01:28:39;;;;;;;;;;;;;;;;;;5054317;28;19916;-21
2023/07/07 01:31:05;;;;;;;;;;;;;;;;;;5054439;28;19913;-19
2023/07/07 01:33:31;;;;;;;;;;;;;;;;;;5054309;28;20007;-22
2023/07/07 01:35:57;;;;;;;;;;;;;;;;;;5054215;28;19920;-21
2023/07/07 01:38:23;;;;;;;;;;;;;;;;;;5056595;28;19923;-22
2023/07/07 01:40:50;;;;;;;;;;;;;;;;;;5058108;28;19952;-22
2023/07/07 01:43:16;;;;;;;;;;;;;;;;;;5058223;28;19909;-21
2023/07/07 01:45:42;;;;;;;;;;;;;;;;;;5058237;28;19909;-21
2023/07/07 01:48:08;;;;;;;;;;;;;;;;;;5057937;28;20251;-21
2023/07/07 01:50:34;;;;;;;;;;;;;;;;;;5058349;28;19991;-19
2023/07/07 01:53:00;;;;;;;;;;;;;;;;;;5040147;28;20394;-20
2023/07/07 01:55:26;;;;;;;;;;;;;;;;;;5057824;28;20006;-22
2023/07/07 01:57:52;;;;;;;;;;;;;;;;;;5058024;28;20252;-21
2023/07/07 02:00:18;;;;;;;;;;;;;;;;;;5057775;28;20035;-21
2023/07/07 02:02:44;;;;;;;;;;;;;;;;;;5057544;28;19960;-21
2023/07/07 02:05:09;;;;;;;;;;;;;;;;;;5057991;28;19920;-21
2023/07/07 02:07:35;;;;;;;;;;;;;;;;;;5057587;28;20228;-20
2023/07/07 02:10:01;;;;;;;;;;;;;;;;;;5040695;28;20228;-21
2023/07/07 02:12:27;;;;;;;;;;;;;;;;;;5057412;28;19909;-22
2023/07/07 02:14:53;;;;;;;;;;;;;;;;;;5057488;28;20271;-22
2023/07/07 02:17:19;;;;;;;;;;;;;;;;;;5057379;28;20258;-21
2023/07/07 02:19:45;;;;;;;;;;;;;;;;;;5057578;28;19970;-20
2023/07/07 02:22:11;;;;;;;;;;;;;;;;;;5039647;28;19919;-21
2023/07/07 02:24:37;;;;;;;;;;;;;;;;;;5057245;28;20011;-22
2023/07/07 02:27:03;;;;;;;;;;;;;;;;;;5057236;28;19909;-22
2023/07/07 02:29:29;;;;;;;;;;;;;;;;;;5057403;28;19956;-23
2023/07/07 02:31:55;;;;;;;;;;;;;;;;;;5056902;28;19981;-21
2023/07/07 02:34:21;;;;;;;;;;;;;;;;;;5057111;28;20058;-20
2023/07/07 02:36:47;;;;;;;;;;;;;;;;;;5039501;28;19972;-22
2023/07/07 02:39:14;;;;;;;;;;;;;;;;;;5056953;28;20317;-21
2023/07/07 02:41:40;;;;;;;;;;;;;;;;;;5057414;28;19908;-20
2023/07/07 02:44:06;;;;;;;;;;;;;;;;;;5056867;28;19978;-20
2023/07/07 02:46:31;;;;;;;;;;;;;;;;;;5056883;28;19905;-22
2023/07/07 02:48:57;;;;;;;;;;;;;;;;;;5055644;28;20011;-22
2023/07/07 02:51:23;;;;;;;;;;;;;;;;;;5056662;28;19917;-21
2023/07/07 02:53:49;;;;;;;;;;;;;;;;;;5056690;28;20294;-21
2023/07/07 02:56:15;;;;;;;;;;;;;;;;;;5056914;28;20345;-20
2023/07/07 02:58:41;;;;;;;;;;;;;;;;;;5056632;28;19936;-21
2023/07/07 03:01:09;;;;;;;;;;;;;;;;;;5056632;28;19908;-21
2023/07/07 03:03:35;;;;;;;;;;;;;;;;;;5056164;28;19921;-20
2023/07/07 03:06:01;;;;;;;;;;;;;;;;;;5056504;28;19909;-20
2023/07/07 03:08:27;;;;;;;;;;;;;;;;;;5056433;28;20282;-21
2023/07/07 03:10:53;;;;;;;;;;;;;;;;;;5056339;28;19927;-21
2023/07/07 03:13:20;;;;;;;;;;;;;;;;;;5056325;28;19916;-20
2023/07/07 03:15:46;;;;;;;;;;;;;;;;;;5038678;28;19948;-21
2023/07/07 03:18:12;;;;;;;;;;;;;;;;;;5056353;28;20375;-21
2023/07/07 03:20:40;;;;;;;;;;;;;;;;;;5056457;28;20336;-20
2023/07/07 03:23:06;;;;;;;;;;;;;;;;;;5056426;28;19912;-20
2023/07/07 03:25:31;;;;;;;;;;;;;;;;;;5038470;28;20241;-21
2023/07/07 03:27:57;;;;;;;;;;;;;;;;;;5056049;28;20203;-21
2023/07/07 03:30:23;;;;;;;;;;;;;;;;;;5055899;28;20280;-20
2023/07/07 03:32:49;;;;;;;;;;;;;;;;;;5055898;28;19919;-22
2023/07/07 03:35:15;;;;;;;;;;;;;;;;;;5055979;28;19909;-22
2023/07/07 03:37:41;;;;;;;;;;;;;;;;;;5056029;28;19919;-20
2023/07/07 03:40:09;;;;;;;;;;;;;;;;;;5038069;28;19909;-20
2023/07/07 03:42:35;;;;;;;;;;;;;;;;;;5055633;28;20255;-20
2023/07/07 03:45:01;;;;;;;;;;;;;;;;;;5055887;28;19922;-22
2023/07/07 03:47:27;;;;;;;;;;;;;;;;;;5055790;28;19909;-20
2023/07/07 03:49:53;;;;;;;;;;;;;;;;;;5037828;28;19909;-20
2023/07/07 03:52:19;;;;;;;;;;;;;;;;;;5037699;28;19973;-21
2023/07/07 03:54:45;;;;;;;;;;;;;;;;;;5055463;28;19919;-25
2023/07/07 03:57:11;;;;;;;;;;;;;;;;;;5055313;28;19909;-21
2023/07/07 03:59:37;;;;;;;;;;;;;;;;;;5055259;28;19934;-21
2023/07/07 04:02:03;;;;;;;;;;;;;;;;;;5054747;28;19938;-21
2023/07/07 04:04:29;;;;;;;;;;;;;;;;;;5055122;28;20213;-21
2023/07/07 04:06:55;;;;;;;;;;;;;;;;;;5055176;28;19916;-20
2023/07/07 04:09:21;;;;;;;;;;;;;;;;;;5055069;28;19916;-20
2023/07/07 04:11:47;;;;;;;;;;;;;;;;;;5054643;28;19913;-21
2023/07/07 04:14:13;;;;;;;;;;;;;;;;;;5054589;28;20257;-21
2023/07/07 04:16:39;;;;;;;;;;;;;;;;;;5054918;28;20276;-21
2023/07/07 04:19:05;;;;;;;;;;;;;;;;;;5054651;28;19917;-20
2023/07/07 04:21:32;;;;;;;;;;;;;;;;;;5037152;28;19916;-21
2023/07/07 04:23:58;;;;;;;;;;;;;;;;;;5054572;28;19955;-23
2023/07/07 04:26:24;;;;;;;;;;;;;;;;;;5054624;28;19908;-20
2023/07/07 04:28:51;;;;;;;;;;;;;;;;;;5054912;28;19959;-20
2023/07/07 04:31:17;;;;;;;;;;;;;;;;;;5054807;28;19975;-21
2023/07/07 04:33:43;;;;;;;;;;;;;;;;;;5054409;28;20248;-21
2023/07/07 04:36:09;;;;;;;;;;;;;;;;;;5054569;28;19938;-21
2023/07/07 04:38:35;;;;;;;;;;;;;;;;;;5036833;28;20008;-21
2023/07/07 04:41:01;;;;;;;;;;;;;;;;;;5054396;28;19920;-21
2023/07/07 04:43:27;;;;;;;;;;;;;;;;;;5054297;28;19908;-20
2023/07/07 04:45:53;;;;;;;;;;;;;;;;;;5036671;28;19909;-22
2023/07/07 04:48:19;;;;;;;;;;;;;;;;;;5054329;28;20252;-20
2023/07/07 04:50:45;;;;;;;;;;;;;;;;;;5054068;28;19913;-21
2023/07/07 04:53:10;;;;;;;;;;;;;;;;;;5036377;28;19908;-20
2023/07/07 04:55:38;;;;;;;;;;;;;;;;;;5054180;28;19909;-21
2023/07/07 04:58:04;;;;;;;;;;;;;;;;;;5054111;28;20388;-23
2023/07/07 05:00:30;;;;;;;;;;;;;;;;;;5054095;28;20000;-21
2023/07/07 05:02:56;;;;;;;;;;;;;;;;;;5053875;28;20058;-20
2023/07/07 05:05:22;;;;;;;;;;;;;;;;;;5036709;28;19924;-20
2023/07/07 05:07:48;;;;;;;;;;;;;;;;;;5036485;28;20208;-20
2023/07/07 05:10:14;;;;;;;;;;;;;;;;;;5054450;28;20000;-20
2023/07/07 05:12:41;;;;;;;;;;;;;;;;;;5055250;28;20332;-21
2023/07/07 05:15:07;;;;;;;;;;;;;;;;;;5058358;28;20355;-22
2023/07/07 05:17:33;;;;;;;;;;;;;;;;;;5058300;28;19909;-22
2023/07/07 05:19:58;;;;;;;;;;;;;;;;;;5058162;28;19909;-20
2023/07/07 05:22:25;;;;;;;;;;;;;;;;;;5057986;28;19917;-21
2023/07/07 05:24:50;;;;;;;;;;;;;;;;;;5058879;28;19909;-20
2023/07/07 05:27:16;;;;;;;;;;;;;;;;;;5058213;28;19935;-20
2023/07/07 05:29:42;;;;;;;;;;;;;;;;;;5057867;28;19913;-23
2023/07/07 05:32:08;;;;;;;;;;;;;;;;;;5039648;28;19913;-22
2023/07/07 05:34:34;;;;;;;;;;;;;;;;;;5057625;28;19913;-20
2023/07/07 05:37:00;;;;;;;;;;;;;;;;;;5057644;28;19908;-22
2023/07/07 05:39:26;;;;;;;;;;;;;;;;;;5040089;28;20241;-20
2023/07/07 05:41:52;;;;;;;;;;;;;;;;;;5057807;28;20235;-21
2023/07/07 05:44:18;;;;;;;;;;;;;;;;;;5058090;28;19917;-21
2023/07/07 05:46:44;;;;;;;;;;;;;;;;;;5057701;28;19924;-22
2023/07/07 05:49:10;;;;;;;;;;;;;;;;;;5057523;28;19908;-22
2023/07/07 05:51:36;;;;;;;;;;;;;;;;;;5057522;28;20287;-22
2023/07/07 05:54:02;;;;;;;;;;;;;;;;;;5057512;28;19913;-21
2023/07/07 05:56:28;;;;;;;;;;;;;;;;;;5057298;28;19909;-20
2023/07/07 05:58:54;;;;;;;;;;;;;;;;;;5039635;28;19989;-20
2023/07/07 06:01:20;;;;;;;;;;;;;;;;;;5057076;28;19999;-24
2023/07/07 06:03:46;;;;;;;;;;;;;;;;;;5056800;28;19974;-22
2023/07/07 06:06:12;;;;;;;;;;;;;;;;;;5057097;28;19996;-20
2023/07/07 06:08:38;;;;;;;;;;;;;;;;;;5057574;28;19909;-22
2023/07/07 06:11:04;;;;;;;;;;;;;;;;;;5057158;28;19931;-20
2023/07/07 06:13:30;;;;;;;;;;;;;;;;;;5056987;28;19909;-21
2023/07/07 06:15:56;;;;;;;;;;;;;;;;;;5056729;28;19915;-21
2023/07/07 06:18:22;;;;;;;;;;;;;;;;;;5056570;28;19916;-23
2023/07/07 06:20:48;;;;;;;;;;;;;;;;;;5056571;28;19913;-22
2023/07/07 06:23:14;;;;;;;;;;;;;;;;;;5038526;28;20315;-20
2023/07/07 06:25:40;;;;;;;;;;;;;;;;;;5056583;28;19909;-21
2023/07/07 06:28:06;;;;;;;;;;;;;;;;;;5038887;28;20306;-19
2023/07/07 06:30:32;;;;;;;;;;;;;;;;;;5056341;28;19913;-21
2023/07/07 06:32:58;;;;;;;;;;;;;;;;;;5056316;28;19915;-22
2023/07/07 06:35:24;;;;;;;;;;;;;;;;;;5056382;28;19978;-23
2023/07/07 06:37:50;;;;;;;;;;;;;;;;;;5056575;28;20008;-22
2023/07/07 06:40:16;;;;;;;;;;;;;;;;;;5056425;28;20335;-21
2023/07/07 06:42:42;;;;;;;;;;;;;;;;;;5038768;28;20266;-21
2023/07/07 06:45:08;;;;;;;;;;;;;;;;;;5056658;28;20256;-21
2023/07/07 06:47:34;;;;;;;;;;;;;;;;;;5056534;28;20054;-23
2023/07/07 06:50:00;;;;;;;;;;;;;;;;;;5056645;28;19913;-22
2023/07/07 06:52:26;;;;;;;;;;;;;;;;;;5056419;28;20019;-21
2023/07/07 06:54:52;;;;;;;;;;;;;;;;;;5056728;28;19979;-20
2023/07/07 06:57:18;;;;;;;;;;;;;;;;;;5056655;28;19909;-21
2023/07/07 06:59:44;;;;;;;;;;;;;;;;;;5056503;28;19913;-21
2023/07/07 07:02:10;;;;;;;;;;;;;;;;;;5056092;28;19917;-21
2023/07/07 07:04:36;;;;;;;;;;;;;;;;;;5056125;28;19931;-21
2023/07/07 07:07:02;;;;;;;;;;;;;;;;;;5056171;28;19909;-20
2023/07/07 07:09:28;;;;;;;;;;;;;;;;;;5056188;28;19924;-20
2023/07/07 07:11:54;;;;;;;;;;;;;;;;;;5056063;28;20327;-21
2023/07/07 07:14:20;;;;;;;;;;;;;;;;;;5056204;28;20004;-21
2023/07/07 07:16:46;;;;;;;;;;;;;;;;;;5056067;28;20086;-20
2023/07/07 07:19:12;;;;;;;;;;;;;;;;;;5056255;28;19912;-21
2023/07/07 07:21:38;;;;;;;;;;;;;;;;;;5056203;28;19905;-20
2023/07/07 07:24:04;;;;;;;;;;;;;;;;;;5055921;28;19999;-20
2023/07/07 07:26:30;;;;;;;;;;;;;;;;;;5056403;28;20251;-21
2023/07/07 07:28:56;;;;;;;;;;;;;;;;;;5056317;28;19913;-22
2023/07/07 07:31:22;;;;;;;;;;;;;;;;;;5055816;28;19923;-21
2023/07/07 07:33:48;;;;;;;;;;;;;;;;;;5038000;28;19909;-23
2023/07/07 07:36:14;;;;;;;;;;;;;;;;;;5055172;28;20263;-20
2023/07/07 07:38:40;;;;;;;;;;;;;;;;;;5055708;28;19920;-23
2023/07/07 07:41:06;;;;;;;;;;;;;;;;;;5037863;28;19909;-20
2023/07/07 07:43:32;;;;;;;;;;;;;;;;;;5037995;28;19908;-21
2023/07/07 07:45:58;;;;;;;;;;;;;;;;;;5055500;28;20039;-22
2023/07/07 07:48:24;;;;;;;;;;;;;;;;;;5055239;28;19913;-21
2023/07/07 07:50:50;;;;;;;;;;;;;;;;;;5055040;28;19985;-21
2023/07/07 07:53:16;;;;;;;;;;;;;;;;;;5037532;28;19908;-22
2023/07/07 07:55:42;;;;;;;;;;;;;;;;;;5055543;28;19919;-21
2023/07/07 07:58:08;;;;;;;;;;;;;;;;;;5037315;28;19909;-21
2023/07/07 08:00:34;;;;;;;;;;;;;;;;;;5054906;28;19913;-21
2023/07/07 08:03:00;;;;;;;;;;;;;;;;;;5054834;28;19917;-21
2023/07/07 08:05:26;;;;;;;;;;;;;;;;;;5037422;28;19909;-20
2023/07/07 08:07:52;;;;;;;;;;;;;;;;;;5037516;28;19982;-21
2023/07/07 08:10:18;;;;;;;;;;;;;;;;;;5054985;28;19925;-21
2023/07/07 08:12:44;;;;;;;;;;;;;;;;;;5054930;28;20315;-19
2023/07/07 08:15:10;;;;;;;;;;;;;;;;;;5055069;28;20255;-20
2023/07/07 08:17:36;;;;;;;;;;;;;;;;;;5054917;28;20263;-24
2023/07/07 08:20:02;;;;;;;;;;;;;;;;;;5037240;28;19958;-20
2023/07/07 08:22:28;;;;;;;;;;;;;;;;;;5055098;28;19909;-21
2023/07/07 08:24:54;;;;;;;;;;;;;;;;;;5054583;28;19920;-21
2023/07/07 08:27:20;;;;;;;;;;;;;;;;;;5054509;28;19909;-21
2023/07/07 08:29:46;;;;;;;;;;;;;;;;;;5054382;28;19956;-20
2023/07/07 08:32:12;;;;;;;;;;;;;;;;;;5054393;28;19952;-22
2023/07/07 08:34:38;;;;;;;;;;;;;;;;;;5054665;28;19909;-22
2023/07/07 08:37:04;;;;;;;;;;;;;;;;;;5055023;28;20011;-22
2023/07/07 08:39:30;;;;;;;;;;;;;;;;;;5054450;28;19971;-21
2023/07/07 08:41:56;;;;;;;;;;;;;;;;;;5054452;28;19909;-22
2023/07/07 08:44:22;;;;;;;;;;;;;;;;;;5036338;28;19912;-20
2023/07/07 08:46:52;;;;;;;;;;;;;;;;;;5053799;28;20024;-22
2023/07/07 08:49:18;;;;;;;;;;;;;;;;;;5036595;28;19957;-22
2023/07/07 08:51:44;;;;;;;;;;;;;;;;;;5053784;28;19917;-20
2023/07/07 08:54:10;;;;;;;;;;;;;;;;;;5054013;28;19909;-20
2023/07/07 08:56:36;;;;;;;;;;;;;;;;;;5053740;28;20402;-22
2023/07/07 08:59:02;;;;;;;;;;;;;;;;;;5053978;28;19942;-23
2023/07/07 09:01:28;;;;;;;;;;;;;;;;;;5053740;28;20247;-22
2023/07/07 09:03:54;;;;;;;;;;;;;;;;;;5053524;28;20011;-21
2023/07/07 09:06:20;;;;;;;;;;;;;;;;;;5053938;28;20354;-22
2023/07/07 09:08:45;;;;;;;;;;;;;;;;;;5053887;28;19989;-22
2023/07/07 09:11:11;;;;;;;;;;;;;;;;;;5035865;28;19917;-21
2023/07/07 09:13:37;;;;;;;;;;;;;;;;;;5053476;28;19908;-23
2023/07/07 09:16:03;;;;;;;;;;;;;;;;;;5036228;28;20200;-21
2023/07/07 09:18:29;;;;;;;;;;;;;;;;;;5053669;28;20004;-22
2023/07/07 09:20:55;;;;;;;;;;;;;;;;;;5053653;28;20007;-21
2023/07/07 09:23:21;;;;;;;;;;;;;;;;;;5053529;28;19909;-21
2023/07/07 09:25:47;;;;;;;;;;;;;;;;;;5054160;28;19963;-22
2023/07/07 09:28:13;;;;;;;;;;;;;;;;;;5053880;28;19962;-22
2023/07/07 09:30:39;;;;;;;;;;;;;;;;;;5053884;28;19920;-21
2023/07/07 09:33:05;;;;;;;;;;;;;;;;;;5036264;28;20332;-22
2023/07/07 09:35:31;;;;;;;;;;;;;;;;;;5036161;28;19935;-21
2023/07/07 09:37:57;;;;;;;;;;;;;;;;;;5054063;28;20247;-21
2023/07/07 09:40:23;;;;;;;;;;;;;;;;;;5053698;28;19909;-20
2023/07/07 09:42:49;;;;;;;;;;;;;;;;;;5053654;28;19936;-20
2023/07/07 09:45:15;;;;;;;;;;;;;;;;;;5053735;28;19916;-20
2023/07/07 09:47:41;;;;;;;;;;;;;;;;;;5053894;28;19908;-21
2023/07/07 09:50:07;;;;;;;;;;;;;;;;;;5036015;28;19920;-20
2023/07/07 09:52:34;;;;;;;;;;;;;;;;;;5053782;28;19920;-20
2023/07/07 09:55:00;;;;;;;;;;;;;;;;;;5053693;28;19908;-20
2023/07/07 09:57:26;;;;;;;;;;;;;;;;;;5054076;28;19909;-20
2023/07/07 09:59:53;;;;;;;;;;;;;;;;;;5056804;28;20312;-20
2023/07/07 10:02:19;;;;;;;;;;;;;;;;;;5057340;28;19969;-21
2023/07/07 10:04:45;;;;;;;;;;;;;;;;;;5057664;28;20347;-21
2023/07/07 10:07:11;;;;;;;;;;;;;;;;;;5057290;28;19913;-22
2023/07/07 10:09:37;;;;;;;;;;;;;;;;;;5057352;28;19921;-21
2023/07/07 10:12:03;;;;;;;;;;;;;;;;;;5056922;28;20010;-21
2023/07/07 10:14:29;;;;;;;;;;;;;;;;;;5057548;28;19909;-20
2023/07/07 10:16:55;;;;;;;;;;;;;;;;;;5039469;28;20348;-20
2023/07/07 10:19:21;;;;;;;;;;;;;;;;;;5039425;28;19909;-21
2023/07/07 10:21:47;;;;;;;;;;;;;;;;;;5039141;28;20339;-22
2023/07/07 10:24:13;;;;;;;;;;;;;;;;;;5057125;28;20257;-22
2023/07/07 10:26:39;;;;;;;;;;;;;;;;;;5039320;28;19912;-22
2023/07/07 10:29:05;;;;;;;;;;;;;;;;;;5056840;28;19908;-21
2023/07/07 10:31:31;;;;;;;;;;;;;;;;;;5057064;28;20014;-21
2023/07/07 10:33:57;;;;;;;;;;;;;;;;;;5056901;28;19908;-21
2023/07/07 10:36:23;;;;;;;;;;;;;;;;;;5056731;28;19920;-22
2023/07/07 10:38:49;;;;;;;;;;;;;;;;;;5057124;28;20041;-23
2023/07/07 10:41:15;;;;;;;;;;;;;;;;;;5056720;28;19909;-22
2023/07/07 10:43:41;;;;;;;;;;;;;;;;;;5056454;28;19908;-21
2023/07/07 10:46:07;;;;;;;;;;;;;;;;;;5056445;28;20048;-21
2023/07/07 10:48:33;;;;;;;;;;;;;;;;;;5056274;28;19916;-21
2023/07/07 10:50:59;;;;;;;;;;;;;;;;;;5056115;28;19963;-25
2023/07/07 10:53:27;;;;;;;;;;;;;;;;;;5038434;28;19908;-23
2023/07/07 10:55:53;;;;;;;;;;;;;;;;;;5056147;28;19909;-21
2023/07/07 10:58:19;;;;;;;;;;;;;;;;;;5056019;28;20295;-22
2023/07/07 11:00:45;;;;;;;;;;;;;;;;;;5055873;28;19909;-21
2023/07/07 11:03:11;;;;;;;;;;;;;;;;;;5055620;28;19924;-22
2023/07/07 11:05:37;;;;;;;;;;;;;;;;;;5038310;28;20008;-21
2023/07/07 11:08:03;;;;;;;;;;;;;;;;;;5055823;28;19909;-21
2023/07/07 11:10:29;;;;;;;;;;;;;;;;;;5036981;28;20343;-21
2023/07/07 11:12:55;;;;;;;;;;;;;;;;;;5055930;28;19917;-21
2023/07/07 11:15:21;;;;;;;;;;;;;;;;;;5055923;28;19909;-22
2023/07/07 11:17:47;;;;;;;;;;;;;;;;;;5055814;28;20378;-21
2023/07/07 11:20:13;;;;;;;;;;;;;;;;;;5038033;28;19913;-22
2023/07/07 11:22:39;;;;;;;;;;;;;;;;;;5055806;28;19917;-22
2023/07/07 11:25:05;;;;;;;;;;;;;;;;;;5038359;28;20000;-20
2023/07/07 11:27:31;;;;;;;;;;;;;;;;;;5038245;28;19916;-22
2023/07/07 11:29:57;;;;;;;;;;;;;;;;;;5055984;28;19909;-20
2023/07/07 11:32:23;;;;;;;;;;;;;;;;;;5055766;28;19921;-21
2023/07/07 11:34:49;;;;;;;;;;;;;;;;;;5055751;28;19920;-21
2023/07/07 11:37:17;;;;;;;;;;;;;;;;;;5054966;28;21188;-22
2023/07/07 11:39:43;;;;;;;;;;;;;;;;;;5055742;28;19963;-22
2023/07/07 11:42:09;;;;;;;;;;;;;;;;;;5055570;28;20019;-22
2023/07/07 11:44:35;;;;;;;;;;;;;;;;;;5055464;28;19908;-21
2023/07/07 11:47:01;;;;;;;;;;;;;;;;;;5055224;28;19905;-21
2023/07/07 11:49:27;;;;;;;;;;;;;;;;;;5055265;28;20242;-22
2023/07/07 11:51:53;;;;;;;;;;;;;;;;;;5055174;28;19913;-22
2023/07/07 11:54:19;;;;;;;;;;;;;;;;;;5055248;28;19955;-21
2023/07/07 11:56:45;;;;;;;;;;;;;;;;;;5055039;28;19905;-21
2023/07/07 11:59:11;;;;;;;;;;;;;;;;;;5055113;28;19920;-21
2023/07/07 12:01:37;;;;;;;;;;;;;;;;;;5054853;28;20200;-21
2023/07/07 12:04:05;;;;;;;;;;;;;;;;;;5055278;28;20359;-20
2023/07/07 12:06:31;;;;;;;;;;;;;;;;;;5055314;28;20244;-22
2023/07/07 12:08:57;;;;;;;;;;;;;;;;;;5055343;28;19909;-20
2023/07/07 12:11:23;;;;;;;;;;;;;;;;;;5054991;28;19927;-21
2023/07/07 12:13:49;;;;;;;;;;;;;;;;;;5055033;28;19909;-22
2023/07/07 12:16:15;;;;;;;;;;;;;;;;;;5055146;28;19939;-22
2023/07/07 12:18:41;;;;;;;;;;;;;;;;;;5055294;28;19999;-21
2023/07/07 12:21:07;;;;;;;;;;;;;;;;;;5037244;28;20300;-21
2023/07/07 12:23:33;;;;;;;;;;;;;;;;;;5054919;28;19963;-20
2023/07/07 12:25:59;;;;;;;;;;;;;;;;;;5054909;28;19917;-20
2023/07/07 12:28:25;;;;;;;;;;;;;;;;;;5037179;28;19919;-22
2023/07/07 12:30:51;;;;;;;;;;;;;;;;;;5054943;28;19923;-23
2023/07/07 12:33:17;;;;;;;;;;;;;;;;;;5054845;28;20000;-21
2023/07/07 12:35:43;;;;;;;;;;;;;;;;;;5037209;28;20339;-22
2023/07/07 12:38:09;;;;;;;;;;;;;;;;;;5054797;28;19912;-20
2023/07/07 12:40:35;;;;;;;;;;;;;;;;;;5054514;28;19994;-20
2023/07/07 12:43:01;;;;;;;;;;;;;;;;;;5036830;28;19908;-27
2023/07/07 12:45:27;;;;;;;;;;;;;;;;;;5054637;28;19916;-26
2023/07/07 12:47:53;;;;;;;;;;;;;;;;;;5054878;28;19909;-27
2023/07/07 12:50:19;;;;;;;;;;;;;;;;;;5054655;28;20348;-25
2023/07/07 12:52:45;;;;;;;;;;;;;;;;;;5054439;28;19913;-24
2023/07/07 12:55:11;;;;;;;;;;;;;;;;;;5054487;28;19909;-24
2023/07/07 12:57:37;;;;;;;;;;;;;;;;;;5054317;28;19990;-26
2023/07/07 13:00:03;;;;;;;;;;;;;;;;;;5054326;28;19955;-27
2023/07/07 13:02:29;;;;;;;;;;;;;;;;;;5054150;28;19959;-30
2023/07/07 13:04:55;;;;;;;;;;;;;;;;;;5054628;28;19913;-23
2023/07/07 13:07:21;;;;;;;;;;;;;;;;;;5054745;28;19916;-25
2023/07/07 13:09:47;;;;;;;;;;;;;;;;;;5054140;28;19935;-28
2023/07/07 13:12:13;;;;;;;;;;;;;;;;;;5054768;28;19982;-26
2023/07/07 13:14:39;;;;;;;;;;;;;;;;;;5054253;28;19948;-32
2023/07/07 13:17:05;;;;;;;;;;;;;;;;;;5054325;28;19916;-29
2023/07/07 13:19:31;;;;;;;;;;;;;;;;;;5053836;28;20339;-25
2023/07/07 13:21:57;;;;;;;;;;;;;;;;;;5054442;28;19976;-33
2023/07/07 13:24:23;;;;;;;;;;;;;;;;;;5054215;28;19974;-30
2023/07/07 13:26:49;;;;;;;;;;;;;;;;;;5036488;28;19915;-32
2023/07/07 13:29:15;;;;;;;;;;;;;;;;;;5054081;28;19955;-23
2023/07/07 13:31:41;;;;;;;;;;;;;;;;;;5054310;28;19917;-29
2023/07/07 13:34:08;;;;;;;;;;;;;;;;;;5056246;28;19987;-25
2023/07/07 13:36:34;;;;;;;;;;;;;;;;;;5040497;28;20359;-29
2023/07/07 13:39:00;;;;;;;;;;;;;;;;;;5058336;28;20301;-27
2023/07/07 13:41:26;;;;;;;;;;;;;;;;;;5058280;28;19917;-27
2023/07/07 13:43:52;;;;;;;;;;;;;;;;;;5058265;28;19913;-24
2023/07/07 13:46:18;;;;;;;;;;;;;;;;;;5058107;28;19917;-27
2023/07/07 13:48:44;;;;;;;;;;;;;;;;;;5058042;28;19913;-28
2023/07/07 13:51:10;;;;;;;;;;;;;;;;;;5057889;28;20243;-30
2023/07/07 13:53:36;;;;;;;;;;;;;;;;;;5057749;28;20296;-22
2023/07/07 13:56:02;;;;;;;;;;;;;;;;;;5057868;28;19908;-30
2023/07/07 13:58:28;;;;;;;;;;;;;;;;;;5057592;28;19909;-24
2023/07/07 14:00:54;;;;;;;;;;;;;;;;;;5057484;28;19928;-25
2023/07/07 14:03:20;;;;;;;;;;;;;;;;;;5057356;28;19920;-24
2023/07/07 14:05:52;;;;;;;;;;;;;;;;;;5057376;28;19909;-31
2023/07/07 14:08:18;;;;;;;;;;;;;;;;;;5057425;28;19909;-30
2023/07/07 14:10:44;;;;;;;;;;;;;;;;;;5057397;28;19912;-26
2023/07/07 14:13:10;;;;;;;;;;;;;;;;;;5057147;28;19916;-25
2023/07/07 14:15:37;;;;;;;;;;;;;;;;;;5039764;28;20255;-27
2023/07/07 14:18:02;;;;;;;;;;;;;;;;;;5057407;28;20364;-21
2023/07/07 14:20:28;;;;;;;;;;;;;;;;;;5057163;28;19963;-32
2023/07/07 14:22:56;;;;;;;;;;;;;;;;;;5056916;28;20358;-24
2023/07/07 14:25:22;;;;;;;;;;;;;;;;;;5057277;28;19919;-25
2023/07/07 14:27:48;;;;;;;;;;;;;;;;;;5057199;28;19909;-29
2023/07/07 14:30:14;;;;;;;;;;;;;;;;;;5057308;28;19913;-29
2023/07/07 14:32:40;;;;;;;;;;;;;;;;;;5056959;28;20232;-25
2023/07/07 14:35:06;;;;;;;;;;;;;;;;;;5056953;28;20007;-26
2023/07/07 14:37:32;;;;;;;;;;;;;;;;;;5057750;28;19974;-23
2023/07/07 14:40:00;;;;;;;;;;;;;;;;;;5056594;28;20003;-24
2023/07/07 14:42:26;;;;;;;;;;;;;;;;;;5056315;28;19909;-27
2023/07/07 14:44:52;;;;;;;;;;;;;;;;;;5056361;28;19909;-26
2023/07/07 14:47:18;;;;;;;;;;;;;;;;;;5056472;28;19970;-25
2023/07/07 14:49:43;;;;;;;;;;;;;;;;;;5056764;28;19970;-31
2023/07/07 14:52:09;;;;;;;;;;;;;;;;;;5056703;28;19916;-26
2023/07/07 14:54:35;;;;;;;;;;;;;;;;;;5056755;28;20295;-24
2023/07/07 14:57:01;;;;;;;;;;;;;;;;;;5056568;28;19909;-27
2023/07/07 14:59:27;;;;;;;;;;;;;;;;;;5056491;28;19909;-31
2023/07/07 15:01:53;;;;;;;;;;;;;;;;;;5056325;28;20348;-30
2023/07/07 15:04:20;;;;;;;;;;;;;;;;;;5056061;28;20244;-29
2023/07/07 15:06:46;;;;;;;;;;;;;;;;;;5056660;28;20342;-26
2023/07/07 15:09:12;;;;;;;;;;;;;;;;;;5056404;28;19909;-23
2023/07/07 15:11:39;;;;;;;;;;;;;;;;;;5055983;28;20011;-28
2023/07/07 15:14:05;;;;;;;;;;;;;;;;;;5055425;28;20359;-26
2023/07/07 15:16:31;;;;;;;;;;;;;;;;;;5055540;28;19909;-25
2023/07/07 15:18:57;;;;;;;;;;;;;;;;;;5055467;28;19966;-30
2023/07/07 15:21:23;;;;;;;;;;;;;;;;;;5055377;28;19921;-23
2023/07/07 15:23:49;;;;;;;;;;;;;;;;;;5055391;28;19909;-25
2023/07/07 15:26:15;;;;;;;;;;;;;;;;;;5037687;28;20048;-23
2023/07/07 15:28:41;;;;;;;;;;;;;;;;;;5055359;28;19971;-31
2023/07/07 15:31:07;;;;;;;;;;;;;;;;;;5055760;28;19913;-26
2023/07/07 15:33:33;;;;;;;;;;;;;;;;;;5054972;28;19909;-25
2023/07/07 15:35:59;;;;;;;;;;;;;;;;;;5054987;28;19966;-25
2023/07/07 15:38:25;;;;;;;;;;;;;;;;;;5055864;28;19908;-26
2023/07/07 15:40:51;;;;;;;;;;;;;;;;;;5055659;28;19909;-23
2023/07/07 15:43:16;;;;;;;;;;;;;;;;;;5055321;28;19944;-23
2023/07/07 15:45:42;;;;;;;;;;;;;;;;;;5055782;28;19915;-26
2023/07/07 15:48:08;;;;;;;;;;;;;;;;;;5055440;28;20344;-22
2023/07/07 15:50:35;;;;;;;;;;;;;;;;;;5055799;28;19919;-24
2023/07/07 15:53:01;;;;;;;;;;;;;;;;;;5055745;28;20242;-26
2023/07/07 15:55:27;;;;;;;;;;;;;;;;;;5038079;28;19916;-27
2023/07/07 15:57:53;;;;;;;;;;;;;;;;;;5055129;28;19909;-28
2023/07/07 16:00:19;;;;;;;;;;;;;;;;;;5055432;28;19917;-22
2023/07/07 16:02:45;;;;;;;;;;;;;;;;;;5054891;28;19935;-24
2023/07/07 16:05:11;;;;;;;;;;;;;;;;;;5055485;28;19908;-28
2023/07/07 16:07:37;;;;;;;;;;;;;;;;;;5037668;28;19909;-26
2023/07/07 16:10:03;;;;;;;;;;;;;;;;;;5055055;28;19916;-24
2023/07/07 16:12:29;;;;;;;;;;;;;;;;;;5055112;28;19948;-29
2023/07/07 16:14:55;;;;;;;;;;;;;;;;;;5055035;28;19909;-28
2023/07/07 16:17:21;;;;;;;;;;;;;;;;;;5054860;28;20269;-30
2023/07/07 16:19:47;;;;;;;;;;;;;;;;;;5055123;28;19988;-28
2023/07/07 16:22:13;;;;;;;;;;;;;;;;;;5054860;28;20335;-26
2023/07/07 16:24:38;;;;;;;;;;;;;;;;;;5054809;28;19909;-26
2023/07/07 16:27:04;;;;;;;;;;;;;;;;;;5054868;28;20236;-28
2023/07/07 16:29:30;;;;;;;;;;;;;;;;;;5054578;28;19971;-26
2023/07/07 16:31:56;;;;;;;;;;;;;;;;;;5054482;28;19924;-27
2023/07/07 16:34:22;;;;;;;;;;;;;;;;;;5054588;28;19940;-25
2023/07/07 16:36:48;;;;;;;;;;;;;;;;;;5036634;28;20240;-27